createdAt,value
2023-05-21T00:00:12.252Z,12.55
2023-05-21T00:02:40.410Z,12.46
2023-05-21T00:05:13.765Z,12.38
2023-05-21T00:07:41.743Z,13.02
2023-05-21T00:10:09.327Z,12.68
2023-05-21T00:12:36.256Z,13.86
2023-05-21T00:15:03.534Z,14.22
2023-05-21T00:17:30.693Z,14.36
2023-05-21T00:19:57.727Z,14.53
2023-05-21T00:22:24.708Z,13.64
2023-05-21T00:24:51.724Z,12.68
2023-05-21T00:27:18.729Z,12.65
2023-05-21T00:29:45.911Z,13.13
2023-05-21T00:32:13.118Z,13.71
2023-05-21T00:34:40.800Z,14.00
2023-05-21T00:37:10.079Z,14.33
2023-05-21T00:39:37.769Z,14.57
2023-05-21T00:42:05.343Z,14.86
2023-05-21T00:44:35.529Z,15.25
2023-05-21T00:47:03.301Z,12.70
2023-05-21T00:49:30.972Z,12.83
2023-05-21T00:51:58.021Z,12.19
2023-05-21T00:54:25.108Z,12.69
2023-05-21T00:56:52.215Z,12.05
2023-05-21T00:59:19.258Z,11.83
2023-05-21T01:01:46.353Z,11.86
2023-05-21T01:04:13.789Z,12.25
2023-05-21T01:06:40.929Z,12.93
2023-05-21T01:09:09.498Z,13.26
2023-05-21T01:11:54.948Z,13.45
2023-05-21T01:14:22.054Z,13.41
2023-05-21T01:16:52.533Z,13.66
2023-05-21T01:19:22.069Z,13.66
2023-05-21T01:21:53.810Z,13.77
2023-05-21T01:24:21.085Z,14.09
2023-05-21T01:26:48.539Z,11.30
2023-05-21T01:29:16.899Z,10.74
2023-05-21T01:31:56.607Z,10.27
2023-05-21T01:34:27.574Z,10.17
2023-05-21T01:36:59.067Z,10.17
2023-05-21T01:39:38.122Z,10.80
2023-05-21T01:42:06.906Z,12.12
2023-05-21T01:44:34.001Z,10.30
2023-05-21T01:47:01.764Z,10.16
2023-05-21T01:49:28.911Z,9.82
2023-05-21T01:51:56.850Z,9.51
2023-05-21T01:54:24.336Z,9.66
2023-05-21T01:56:53.876Z,9.85
2023-05-21T01:59:20.979Z,11.08
2023-05-21T02:01:48.177Z,11.33
2023-05-21T02:04:15.288Z,9.62
2023-05-21T02:06:42.265Z,9.70
2023-05-21T02:09:09.558Z,9.26
2023-05-21T02:11:36.549Z,9.23
2023-05-21T02:14:04.042Z,9.77
2023-05-21T02:16:31.877Z,9.28
2023-05-21T02:19:00.873Z,9.22
2023-05-21T02:21:28.150Z,9.22
2023-05-21T02:23:55.283Z,9.78
2023-05-21T02:26:23.949Z,9.96
2023-05-21T02:28:52.896Z,9.45
2023-05-21T02:31:19.908Z,9.51
2023-05-21T02:33:47.062Z,9.61
2023-05-21T02:36:15.549Z,9.70
2023-05-21T02:38:43.879Z,9.61
2023-05-21T02:41:11.751Z,9.74
2023-05-21T02:43:38.877Z,9.90
2023-05-21T02:46:07.442Z,10.34
2023-05-21T02:48:34.362Z,10.14
2023-05-21T02:51:01.671Z,10.12
2023-05-21T02:53:28.820Z,10.10
2023-05-21T02:55:56.565Z,10.38
2023-05-21T02:58:25.479Z,10.47
2023-05-21T03:00:53.813Z,10.59
2023-05-21T03:03:21.136Z,10.64
2023-05-21T03:05:48.721Z,10.75
2023-05-21T03:08:24.886Z,11.27
2023-05-21T03:10:52.206Z,14.07
2023-05-21T03:13:19.566Z,14.64
2023-05-21T03:15:46.742Z,12.28
2023-05-21T03:18:14.253Z,13.49
2023-05-21T03:20:43.897Z,14.74
2023-05-21T03:23:16.189Z,15.45
2023-05-21T03:25:46.075Z,15.70
2023-05-21T03:28:13.499Z,15.95
2023-05-21T03:30:51.237Z,16.16
2023-05-21T03:33:47.718Z,16.32
2023-05-21T03:36:25.921Z,16.57
2023-05-21T03:38:53.026Z,16.71
2023-05-21T03:41:21.310Z,16.76
2023-05-21T03:43:52.388Z,17.05
2023-05-21T03:46:20.811Z,17.08
2023-05-21T03:49:07.169Z,15.75
2023-05-21T03:51:35.486Z,16.47
2023-05-21T03:54:02.657Z,16.70
2023-05-21T03:56:29.683Z,16.95
2023-05-21T03:58:56.660Z,17.10
2023-05-21T04:01:24.358Z,17.45
2023-05-21T04:03:52.189Z,16.51
2023-05-21T04:06:20.191Z,15.09
2023-05-21T04:08:48.170Z,16.61
2023-05-21T04:11:15.224Z,17.53
2023-05-21T04:13:42.223Z,17.94
2023-05-21T04:16:09.622Z,18.18
2023-05-21T04:18:37.050Z,18.50
2023-05-21T04:21:04.899Z,18.77
2023-05-21T04:23:32.124Z,19.16
2023-05-21T04:25:59.565Z,19.45
2023-05-21T04:28:28.933Z,19.61
2023-05-21T04:30:56.712Z,19.82
2023-05-21T04:33:25.819Z,20.10
2023-05-21T04:35:52.911Z,20.39
2023-05-21T04:38:21.028Z,20.17
2023-05-21T04:40:51.036Z,20.29
2023-05-21T04:43:25.570Z,20.41
2023-05-21T04:45:55.179Z,20.59
2023-05-21T04:48:25.040Z,20.68
2023-05-21T04:50:53.769Z,20.69
2023-05-21T04:53:21.009Z,21.03
2023-05-21T04:55:48.492Z,21.12
2023-05-21T04:58:18.149Z,21.40
2023-05-21T05:00:51.170Z,21.76
2023-05-21T05:03:18.712Z,21.79
2023-05-21T05:05:46.266Z,21.96
2023-05-21T05:08:15.510Z,18.86
2023-05-21T05:10:43.522Z,19.23
2023-05-21T05:13:10.726Z,19.39
2023-05-21T05:15:38.002Z,16.18
2023-05-21T05:18:08.804Z,16.21
2023-05-21T05:20:35.954Z,15.41
2023-05-21T05:23:02.932Z,15.74
2023-05-21T05:25:29.908Z,16.16
2023-05-21T05:27:56.942Z,16.28
2023-05-21T05:30:23.915Z,15.79
2023-05-21T05:32:51.979Z,16.11
2023-05-21T05:35:19.385Z,18.58
2023-05-21T05:37:46.410Z,19.76
2023-05-21T05:40:13.536Z,20.29
2023-05-21T05:42:40.759Z,20.69
2023-05-21T05:45:11.912Z,20.96
2023-05-21T05:47:40.233Z,21.41
2023-05-21T05:50:08.071Z,22.00
2023-05-21T05:52:36.018Z,22.24
2023-05-21T05:55:03.409Z,22.69
2023-05-21T05:57:30.482Z,22.70
2023-05-21T06:00:07.323Z,22.85
2023-05-21T06:02:39.404Z,22.71
2023-05-21T06:05:07.667Z,22.24
2023-05-21T06:07:34.840Z,22.55
2023-05-21T06:10:01.958Z,22.64
2023-05-21T06:12:29.011Z,22.84
2023-05-21T06:14:56.159Z,22.93
2023-05-21T06:17:23.254Z,23.23
2023-05-21T06:19:50.687Z,23.28
2023-05-21T06:22:17.913Z,23.19
2023-05-21T06:24:45.586Z,22.91
2023-05-21T06:27:12.904Z,22.81
2023-05-21T06:29:41.105Z,23.18
2023-05-21T06:32:11.217Z,23.34
2023-05-21T06:34:38.238Z,23.74
2023-05-21T06:37:06.113Z,24.08
2023-05-21T06:39:33.280Z,24.36
2023-05-21T06:42:00.508Z,24.42
2023-05-21T06:44:44.852Z,24.34
2023-05-21T06:47:16.876Z,24.10
2023-05-21T06:49:44.104Z,24.15
2023-05-21T06:52:11.564Z,24.20
2023-05-21T06:54:38.639Z,24.23
2023-05-21T06:57:06.303Z,24.62
2023-05-21T06:59:33.354Z,24.55
2023-05-21T07:02:02.355Z,24.31
2023-05-21T07:04:31.102Z,24.02
2023-05-21T07:06:58.150Z,24.30
2023-05-21T07:09:25.210Z,24.50
2023-05-21T07:11:53.512Z,24.50
2023-05-21T07:14:21.804Z,24.59
2023-05-21T07:16:49.179Z,24.74
2023-05-21T07:19:16.337Z,24.90
2023-05-21T07:21:43.614Z,24.67
2023-05-21T07:24:11.058Z,24.85
2023-05-21T07:26:40.574Z,25.36
2023-05-21T07:29:07.916Z,25.50
2023-05-21T07:31:34.992Z,25.31
2023-05-21T07:34:02.035Z,25.44
2023-05-21T07:36:31.284Z,25.67
2023-05-21T07:38:58.590Z,25.52
2023-05-21T07:41:25.856Z,25.93
2023-05-21T07:43:53.290Z,26.05
2023-05-21T07:46:20.649Z,26.15
2023-05-21T07:48:50.070Z,25.97
2023-05-21T07:51:17.169Z,26.35
2023-05-21T07:53:44.432Z,26.13
2023-05-21T07:56:12.023Z,25.66
2023-05-21T07:58:40.677Z,25.53
2023-05-21T08:01:08.279Z,25.90
2023-05-21T08:03:35.378Z,26.70
2023-05-21T08:06:02.608Z,27.22
2023-05-21T08:08:29.625Z,27.20
2023-05-21T08:10:57.422Z,26.92
2023-05-21T08:13:26.004Z,26.55
2023-05-21T08:15:53.694Z,25.64
2023-05-21T08:18:23.921Z,25.10
2023-05-21T08:20:51.830Z,25.31
2023-05-21T08:23:20.168Z,25.54
2023-05-21T08:25:50.744Z,25.86
2023-05-21T08:28:17.746Z,26.41
2023-05-21T08:30:44.790Z,26.65
2023-05-21T08:33:11.797Z,27.10
2023-05-21T08:35:39.342Z,26.98
2023-05-21T08:38:21.588Z,26.26
2023-05-21T08:41:08.963Z,26.34
2023-05-21T08:43:36.260Z,27.06
2023-05-21T08:46:04.280Z,27.59
2023-05-21T08:48:33.379Z,27.71
2023-05-21T08:51:03.386Z,27.49
2023-05-21T08:53:34.561Z,26.89
2023-05-21T08:56:02.232Z,26.63
2023-05-21T08:58:43.887Z,27.08
2023-05-21T09:01:11.131Z,27.88
2023-05-21T09:03:40.643Z,28.17
2023-05-21T09:06:11.007Z,27.22
2023-05-21T09:08:39.197Z,27.30
2023-05-21T09:11:27.357Z,27.88
2023-05-21T09:13:56.722Z,27.58
2023-05-21T09:16:29.075Z,27.69
2023-05-21T09:18:56.611Z,27.70
2023-05-21T09:21:28.658Z,27.91
2023-05-21T09:23:59.467Z,27.97
2023-05-21T09:26:26.992Z,26.94
2023-05-21T09:29:00.937Z,26.83
2023-05-21T09:31:28.400Z,27.18
2023-05-21T09:33:55.895Z,27.36
2023-05-21T09:36:24.640Z,27.55
2023-05-21T09:38:52.084Z,27.89
2023-05-21T09:41:21.808Z,27.67
2023-05-21T09:43:49.269Z,27.41
2023-05-21T09:46:16.460Z,27.68
2023-05-21T09:48:43.775Z,27.78
2023-05-21T09:51:18.768Z,28.00
2023-05-21T09:53:59.903Z,28.34
2023-05-21T09:56:29.538Z,28.67
2023-05-21T09:58:57.754Z,28.44
2023-05-21T10:01:24.918Z,28.65
2023-05-21T10:03:57.207Z,28.02
2023-05-21T10:06:28.397Z,27.71
2023-05-21T10:08:59.419Z,27.61
2023-05-21T10:11:31.531Z,27.94
2023-05-21T10:14:01.479Z,28.47
2023-05-21T10:16:28.730Z,28.25
2023-05-21T10:18:55.812Z,28.38
2023-05-21T10:21:23.599Z,28.56
2023-05-21T10:23:51.389Z,28.76
2023-05-21T10:26:19.797Z,29.01
2023-05-21T10:28:48.192Z,28.82
2023-05-21T10:31:15.153Z,28.49
2023-05-21T10:33:44.831Z,28.57
2023-05-21T10:36:11.803Z,28.65
2023-05-21T10:38:38.930Z,28.29
2023-05-21T10:41:06.925Z,28.44
2023-05-21T10:43:47.753Z,28.68
2023-05-21T10:46:42.196Z,28.30
2023-05-21T10:49:34.259Z,28.06
2023-05-21T10:52:09.438Z,28.31
2023-05-21T10:55:15.816Z,28.31
2023-05-21T10:58:07.505Z,28.45
2023-05-21T11:00:34.510Z,28.52
2023-05-21T11:03:01.967Z,28.65
2023-05-21T11:05:40.304Z,28.15
2023-05-21T11:08:21.162Z,28.06
2023-05-21T11:10:58.502Z,28.06
2023-05-21T11:13:26.644Z,27.89
2023-05-21T11:15:57.380Z,27.98
2023-05-21T11:18:31.051Z,28.08
2023-05-21T11:21:05.131Z,27.89
2023-05-21T11:23:50.929Z,27.98
2023-05-21T11:26:19.084Z,28.25
2023-05-21T11:28:46.211Z,27.93
2023-05-21T11:31:26.974Z,27.47
2023-05-21T11:34:12.179Z,28.07
2023-05-21T11:36:40.052Z,28.46
2023-05-21T11:39:17.929Z,28.67
2023-05-21T11:41:53.673Z,28.51
2023-05-21T11:44:48.796Z,28.95
2023-05-21T11:47:19.336Z,29.08
2023-05-21T11:49:46.601Z,28.85
2023-05-21T11:52:14.011Z,28.65
2023-05-21T11:54:50.704Z,28.60
2023-05-21T11:57:19.733Z,28.59
2023-05-21T11:59:47.046Z,28.57
2023-05-21T12:02:18.615Z,28.91
2023-05-21T12:04:46.784Z,29.25
2023-05-21T12:07:15.325Z,29.05
2023-05-21T12:09:47.057Z,28.96
2023-05-21T12:12:18.909Z,29.36
2023-05-21T12:14:47.866Z,29.78
2023-05-21T12:17:22.892Z,29.74
2023-05-21T12:19:51.994Z,29.81
2023-05-21T12:22:19.283Z,29.03
2023-05-21T12:24:46.511Z,29.05
2023-05-21T12:27:13.660Z,29.74
2023-05-21T12:29:42.674Z,29.59
2023-05-21T12:32:11.083Z,29.45
2023-05-21T12:34:43.369Z,29.33
2023-05-21T12:37:22.132Z,29.16
2023-05-21T12:39:50.753Z,28.95
2023-05-21T12:42:23.290Z,28.83
2023-05-21T12:44:50.274Z,28.86
2023-05-21T12:47:18.051Z,29.29
2023-05-21T12:49:48.177Z,29.46
2023-05-21T12:52:15.927Z,29.09
2023-05-21T12:54:45.323Z,28.95
2023-05-21T12:57:16.756Z,29.57
2023-05-21T12:59:48.488Z,29.68
2023-05-21T13:02:17.372Z,29.81
2023-05-21T13:04:44.688Z,29.83
2023-05-21T13:07:11.771Z,29.52
2023-05-21T13:09:38.815Z,29.32
2023-05-21T13:12:06.132Z,29.59
2023-05-21T13:14:33.222Z,29.72
2023-05-21T13:17:00.276Z,29.50
2023-05-21T13:19:27.468Z,29.86
2023-05-21T13:21:54.668Z,30.16
2023-05-21T13:24:21.720Z,29.98
2023-05-21T13:26:48.792Z,30.12
2023-05-21T13:29:16.726Z,29.96
2023-05-21T13:31:44.044Z,30.06
2023-05-21T13:34:12.556Z,30.16
2023-05-21T13:36:40.496Z,30.10
2023-05-21T13:39:07.411Z,30.08
2023-05-21T13:41:34.382Z,30.04
2023-05-21T13:44:01.691Z,29.28
2023-05-21T13:46:28.790Z,29.05
2023-05-21T13:48:55.811Z,28.89
2023-05-21T13:51:37.393Z,29.36
2023-05-21T13:54:05.898Z,29.75
2023-05-21T13:56:34.117Z,29.92
2023-05-21T13:59:01.541Z,30.09
2023-05-21T14:01:28.655Z,30.15
2023-05-21T14:03:56.479Z,30.28
2023-05-21T14:06:23.464Z,30.77
2023-05-21T14:08:50.486Z,30.86
2023-05-21T14:11:18.618Z,30.16
2023-05-21T14:13:47.081Z,30.12
2023-05-21T14:16:14.067Z,30.57
2023-05-21T14:18:41.134Z,30.90
2023-05-21T14:21:08.117Z,30.66
2023-05-21T14:23:35.679Z,30.81
2023-05-21T14:26:02.730Z,30.80
2023-05-21T14:28:31.143Z,31.07
2023-05-21T14:30:58.198Z,31.20
2023-05-21T14:33:25.229Z,31.01
2023-05-21T14:35:52.706Z,30.93
2023-05-21T14:38:19.671Z,30.53
2023-05-21T14:40:46.727Z,30.08
2023-05-21T14:43:13.715Z,30.23
2023-05-21T14:45:41.001Z,30.19
2023-05-21T14:48:12.002Z,30.19
2023-05-21T14:50:39.635Z,30.08
2023-05-21T14:53:10.077Z,30.80
2023-05-21T14:55:37.493Z,30.54
2023-05-21T14:58:06.091Z,30.05
2023-05-21T15:00:33.541Z,30.24
2023-05-21T15:03:00.737Z,30.32
2023-05-21T15:05:28.121Z,30.17
2023-05-21T15:07:58.655Z,29.78
2023-05-21T15:10:26.497Z,29.68
2023-05-21T15:12:53.571Z,29.52
2023-05-21T15:15:23.428Z,29.94
2023-05-21T15:17:50.614Z,30.48
2023-05-21T15:20:19.226Z,30.02
2023-05-21T15:22:47.974Z,29.55
2023-05-21T15:25:14.994Z,29.43
2023-05-21T15:27:41.979Z,29.93
2023-05-21T15:30:09.202Z,29.98
2023-05-21T15:32:36.452Z,29.66
2023-05-21T15:35:03.608Z,29.67
2023-05-21T15:37:32.459Z,29.80
2023-05-21T15:39:59.800Z,30.05
2023-05-21T15:42:31.184Z,29.68
2023-05-21T15:44:58.444Z,29.95
2023-05-21T15:47:25.513Z,29.93
2023-05-21T15:49:52.670Z,29.52
2023-05-21T15:52:20.167Z,29.44
2023-05-21T15:54:47.353Z,29.72
2023-05-21T15:57:14.365Z,29.82
2023-05-21T15:59:41.518Z,29.87
2023-05-21T16:02:09.680Z,29.89
2023-05-21T16:04:36.640Z,29.62
2023-05-21T16:07:03.673Z,29.78
2023-05-21T16:09:30.823Z,29.78
2023-05-21T16:11:57.858Z,30.10
2023-05-21T16:14:25.093Z,29.85
2023-05-21T16:16:52.516Z,29.63
2023-05-21T16:19:19.667Z,29.88
2023-05-21T16:21:46.874Z,30.04
2023-05-21T16:24:13.936Z,29.55
2023-05-21T16:26:41.916Z,29.40
2023-05-21T16:29:09.000Z,29.41
2023-05-21T16:31:36.389Z,29.24
2023-05-21T16:34:03.508Z,29.46
2023-05-21T16:36:31.125Z,29.59
2023-05-21T16:38:58.210Z,29.58
2023-05-21T16:41:25.393Z,29.66
2023-05-21T16:43:54.514Z,29.73
2023-05-21T16:46:21.756Z,29.32
2023-05-21T16:48:48.830Z,29.04
2023-05-21T16:51:15.899Z,28.81
2023-05-21T16:53:42.950Z,28.77
2023-05-21T16:56:10.980Z,28.19
2023-05-21T16:58:40.777Z,27.70
2023-05-21T17:01:10.125Z,27.44
2023-05-21T17:03:37.228Z,27.46
2023-05-21T17:06:07.729Z,27.43
2023-05-21T17:08:34.865Z,27.32
2023-05-21T17:11:02.115Z,27.31
2023-05-21T17:13:29.191Z,26.74
2023-05-21T17:15:56.384Z,26.77
2023-05-21T17:18:23.540Z,26.70
2023-05-21T17:20:50.637Z,26.55
2023-05-21T17:23:18.056Z,26.57
2023-05-21T17:25:45.146Z,26.09
2023-05-21T17:28:12.182Z,25.98
2023-05-21T17:30:39.210Z,25.97
2023-05-21T17:33:07.856Z,25.76
2023-05-21T17:35:35.213Z,25.75
2023-05-21T17:38:02.976Z,25.60
2023-05-21T17:40:31.097Z,25.58
2023-05-21T17:42:58.128Z,25.67
2023-05-21T17:45:25.089Z,25.62
2023-05-21T17:47:52.489Z,25.21
2023-05-21T17:50:19.493Z,24.79
2023-05-21T17:52:46.514Z,24.46
2023-05-21T17:55:14.686Z,24.63
2023-05-21T17:57:41.677Z,24.37
2023-05-21T18:00:09.271Z,24.22
2023-05-21T18:02:39.171Z,24.05
2023-05-21T18:05:07.577Z,24.28
2023-05-21T18:07:34.593Z,24.24
2023-05-21T18:10:01.755Z,24.09
2023-05-21T18:12:28.773Z,23.98
2023-05-21T18:14:55.760Z,23.91
2023-05-21T18:17:22.736Z,23.78
2023-05-21T18:19:51.052Z,23.65
2023-05-21T18:22:18.041Z,23.62
2023-05-21T18:24:45.031Z,23.69
2023-05-21T18:27:12.493Z,23.48
2023-05-21T18:29:39.431Z,23.33
2023-05-21T18:32:07.747Z,23.20
2023-05-21T18:34:35.109Z,23.11
2023-05-21T18:37:02.050Z,22.91
2023-05-21T18:39:29.031Z,22.69
2023-05-21T18:42:11.549Z,22.67
2023-05-21T18:44:39.692Z,22.73
2023-05-21T18:47:07.897Z,22.74
2023-05-21T18:49:36.337Z,22.69
2023-05-21T18:52:07.790Z,22.68
2023-05-21T18:54:34.739Z,22.66
2023-05-21T18:57:01.747Z,22.41
2023-05-21T18:59:28.970Z,22.44
2023-05-21T19:01:56.025Z,22.44
2023-05-21T19:04:23.154Z,22.10
2023-05-21T19:06:50.104Z,22.17
2023-05-21T19:09:17.135Z,22.16
2023-05-21T19:11:44.156Z,22.34
2023-05-21T19:14:11.249Z,22.32
2023-05-21T19:16:38.378Z,21.92
2023-05-21T19:19:06.157Z,21.97
2023-05-21T19:21:33.369Z,22.07
2023-05-21T19:24:01.064Z,22.09
2023-05-21T19:26:28.473Z,21.93
2023-05-21T19:28:55.710Z,21.72
2023-05-21T19:31:23.271Z,21.67
2023-05-21T19:33:50.761Z,21.28
2023-05-21T19:36:18.719Z,21.29
2023-05-21T19:38:48.331Z,21.23
2023-05-21T19:41:18.859Z,21.07
2023-05-21T19:43:46.555Z,21.04
2023-05-21T19:46:16.596Z,20.95
2023-05-21T19:48:53.457Z,20.96
2023-05-21T19:51:20.619Z,21.30
2023-05-21T19:53:47.731Z,21.28
2023-05-21T19:56:14.772Z,21.28
2023-05-21T19:58:41.913Z,21.19
2023-05-21T20:01:09.596Z,20.92
2023-05-21T20:03:37.384Z,20.65
2023-05-21T20:06:04.651Z,20.66
2023-05-21T20:08:32.151Z,20.51
2023-05-21T20:10:59.120Z,20.43
2023-05-21T20:13:26.309Z,20.43
2023-05-21T20:15:53.470Z,20.34
2023-05-21T20:18:21.989Z,20.19
2023-05-21T20:20:49.297Z,20.39
2023-05-21T20:23:16.377Z,20.46
2023-05-21T20:25:43.460Z,20.43
2023-05-21T20:28:10.485Z,20.22
2023-05-21T20:30:55.396Z,20.29
2023-05-21T20:33:22.476Z,19.99
2023-05-21T20:35:49.519Z,20.06
2023-05-21T20:38:17.377Z,20.01
2023-05-21T20:40:44.465Z,20.17
2023-05-21T20:43:15.257Z,20.14
2023-05-21T20:45:43.737Z,20.06
2023-05-21T20:48:12.338Z,19.91
2023-05-21T20:50:41.804Z,19.88
2023-05-21T20:53:08.877Z,19.74
2023-05-21T20:55:36.247Z,19.74
2023-05-21T20:58:03.782Z,19.71
2023-05-21T21:00:34.428Z,19.61
2023-05-21T21:03:03.888Z,17.63
2023-05-21T21:05:31.192Z,17.85
2023-05-21T21:08:02.475Z,17.82
2023-05-21T21:10:29.632Z,18.08
2023-05-21T21:12:56.728Z,15.70
2023-05-21T21:15:24.208Z,15.68
2023-05-21T21:17:51.349Z,15.99
2023-05-21T21:20:19.400Z,16.31
2023-05-21T21:22:46.452Z,16.43
2023-05-21T21:25:13.799Z,16.72
2023-05-21T21:27:42.524Z,16.70
2023-05-21T21:30:10.155Z,16.88
2023-05-21T21:32:37.203Z,17.05
2023-05-21T21:35:04.364Z,17.11
2023-05-21T21:37:31.409Z,17.27
2023-05-21T21:40:00.232Z,17.21
2023-05-21T21:42:27.294Z,16.30
2023-05-21T21:44:54.921Z,15.79
2023-05-21T21:47:21.874Z,15.71
2023-05-21T21:49:49.425Z,15.73
2023-05-21T21:52:17.463Z,15.73
2023-05-21T21:54:44.448Z,16.15
2023-05-21T21:57:12.250Z,16.31
2023-05-21T21:59:39.592Z,16.41
2023-05-21T22:02:06.606Z,16.51
2023-05-21T22:04:33.581Z,16.56
2023-05-21T22:07:01.806Z,16.52
2023-05-21T22:09:28.859Z,16.55
2023-05-21T22:11:56.586Z,16.51
2023-05-21T22:14:24.068Z,16.53
2023-05-21T22:16:53.263Z,16.66
2023-05-21T22:19:22.210Z,16.73
2023-05-21T22:21:49.444Z,16.70
2023-05-21T22:24:30.860Z,16.83
2023-05-21T22:26:58.879Z,16.93
2023-05-21T22:29:25.999Z,16.89
2023-05-21T22:31:53.008Z,16.66
2023-05-21T22:34:20.285Z,16.76
2023-05-21T22:36:47.516Z,16.85
2023-05-21T22:39:14.801Z,16.77
2023-05-21T22:41:42.235Z,16.41
2023-05-21T22:44:13.087Z,16.30
2023-05-21T22:46:42.196Z,16.33
2023-05-21T22:49:12.136Z,16.31
2023-05-21T22:51:39.288Z,16.46
2023-05-21T22:54:06.319Z,16.44
2023-05-21T22:56:33.317Z,16.39
2023-05-21T22:59:00.329Z,16.53
2023-05-21T23:01:27.432Z,16.68
2023-05-21T23:03:54.443Z,16.41
2023-05-21T23:06:21.477Z,16.15
2023-05-21T23:08:48.472Z,16.28
2023-05-21T23:11:15.568Z,16.13
2023-05-21T23:13:42.579Z,16.22
2023-05-21T23:16:09.673Z,16.13
2023-05-21T23:18:36.668Z,16.09
2023-05-21T23:21:03.670Z,16.23
2023-05-21T23:23:30.683Z,16.24
2023-05-21T23:25:59.084Z,16.18
2023-05-21T23:28:26.617Z,15.84
2023-05-21T23:30:53.619Z,15.85
2023-05-21T23:33:20.620Z,15.71
2023-05-21T23:35:47.653Z,15.70
2023-05-21T23:38:14.731Z,15.58
2023-05-21T23:40:42.151Z,15.53
2023-05-21T23:43:09.122Z,15.53
2023-05-21T23:45:36.134Z,15.57
2023-05-21T23:48:03.628Z,15.55
2023-05-21T23:50:30.976Z,15.40
2023-05-21T23:52:58.880Z,15.52
2023-05-21T23:55:25.906Z,15.52
2023-05-21T23:57:52.899Z,15.57
